Pagina principale
METAR-TAF:

METAR-TAF

Aeroporti :

Lamezia Terme, Italia

Aeroporto di Lamezia Terme

latitudine: 38-54N, longitudine: 016-15E, altezza: 15 m

Osservazione

Il bollettino è stato emesso 44 minuti fa, alle 19:50 UTC
Vento 10 kt da ovest
Temperature 25°C
Umidità 65%
Pressione 1007 hPa
Visibilità 10 km o più
Poco nuvoloso ad un'altezza di 2000 ft

METAR: LICA 251950Z 26010KT 9999 FEW020 25/18 Q1007

Ora: 22:34 (20:34 UTC)

Previsione

Il bollettino è stato emesso 3 ore e 34 minuti fa, alle 17:00 UTC
Previsione valida dal 25 alle 18 UTC al 26 alle 18 UTC
Vento 14 kt da ovest
Visibilità 10 km o più
Nubi sparse ad un'altezza di 1800 ft
Temporaneamente
dal 26 alle 09 UTC al 26 alle 18 UTC
temporale, pioggia

TAF: LICA 251700Z 2518/2618 27014KT 9999 SCT018 TEMPO 2609/2618 TSRA

Osservazioni e previsioni meteorologiche di più di 4000 aeroporti (messaggi METAR e TAF).

Le stazioni disponibili sono rappresentate dai dischi gialli e rossi sulla carta.

Puntare il mouse per vedere il nome della stazione.

Clicca sopra per visualizzare le osservazioni e previsioni meteorologiche.

Per cambiare la mappa : fare clic sui pulsanti verdi con una croce nera per ingrandire, il pulsante verde con un trattino per diminuire, o sulla freccia verde per le mappe adiacenti.


METAR-TAF: